Time;durP1;ratioP1;P1;durP2;ratioP2;P2;SDS_P1;SDS_P2;PMS_P1;PMS_P2;Temp;Humidity;BMP_temperature;BMP_pressure;BME280_temperature;BME280_humidity;BME280_pressure;Samples;Min_cycle;Max_cycle;Signal;HPM_P1;HPM_P2
2022/03/05 00:01:50;;;;;;;7.47;4.88;;;;;;;;;;4981445;28;20133;-52
2022/03/05 00:04:15;;;;;;;6.70;4.63;;;;;;;;;;4981682;28;20117;-52
2022/03/05 00:06:41;;;;;;;7.15;4.65;;;;;;;;;;4980796;28;20289;-53
2022/03/05 00:09:06;;;;;;;7.55;4.53;;;;;;;;;;4981610;28;20556;-56
2022/03/05 00:11:31;;;;;;;7.90;4.87;;;;;;;;;;4984441;28;20064;-55
2022/03/05 00:13:56;;;;;;;6.63;4.53;;;;;;;;;;4984973;28;20022;-54
2022/03/05 00:16:22;;;;;;;7.53;4.47;;;;;;;;;;4984135;28;20054;-53
2022/03/05 00:18:48;;;;;;;6.57;4.37;;;;;;;;;;4984845;28;20364;-55
2022/03/05 00:21:13;;;;;;;7.85;4.55;;;;;;;;;;4984858;28;20273;-55
2022/03/05 00:23:38;;;;;;;7.20;4.70;;;;;;;;;;4984350;28;20049;-55
2022/03/05 00:26:04;;;;;;;6.10;4.53;;;;;;;;;;4984367;28;20109;-55
2022/03/05 00:28:30;;;;;;;7.20;4.82;;;;;;;;;;4985132;28;20152;-53
2022/03/05 00:30:58;;;;;;;6.90;4.53;;;;;;;;;;4984781;28;20057;-55
2022/03/05 00:33:23;;;;;;;6.65;4.68;;;;;;;;;;4984641;28;20288;-55
2022/03/05 00:35:49;;;;;;;7.32;4.80;;;;;;;;;;4984177;28;20572;-55
2022/03/05 00:38:14;;;;;;;6.82;4.50;;;;;;;;;;4984375;28;20092;-53
2022/03/05 00:40:41;;;;;;;7.43;5.30;;;;;;;;;;4984060;28;20354;-53
2022/03/05 00:43:06;;;;;;;8.10;4.75;;;;;;;;;;4984346;28;20269;-53
2022/03/05 00:45:31;;;;;;;6.88;5.00;;;;;;;;;;4984094;28;20418;-52
2022/03/05 00:47:56;;;;;;;7.28;4.85;;;;;;;;;;4988309;28;20049;-53
2022/03/05 00:50:22;;;;;;;5.80;4.18;;;;;;;;;;5004024;28;20100;-54
2022/03/05 00:52:47;;;;;;;7.77;5.10;;;;;;;;;;5002850;28;20095;-55
2022/03/05 00:55:12;;;;;;;8.33;5.07;;;;;;;;;;5003286;28;20287;-53
2022/03/05 00:57:37;;;;;;;7.30;5.00;;;;;;;;;;5001465;28;20124;-54
2022/03/05 01:00:03;;;;;;;7.57;5.20;;;;;;;;;;4984157;28;20250;-55
2022/03/05 01:02:30;;;;;;;6.90;4.72;;;;;;;;;;4984175;28;20281;-55
2022/03/05 01:04:56;;;;;;;7.53;4.75;;;;;;;;;;4983823;28;20041;-55
2022/03/05 01:07:21;;;;;;;7.03;4.50;;;;;;;;;;4983831;28;20405;-55
2022/03/05 01:09:46;;;;;;;7.17;4.70;;;;;;;;;;4983641;28;20348;-55
2022/03/05 01:12:11;;;;;;;6.40;4.30;;;;;;;;;;4983449;28;20100;-55
2022/03/05 01:14:37;;;;;;;8.00;5.13;;;;;;;;;;4983775;28;20031;-55
2022/03/05 01:17:02;;;;;;;7.38;4.70;;;;;;;;;;4983600;28;20372;-54
2022/03/05 01:19:27;;;;;;;6.47;4.35;;;;;;;;;;4983826;28;20467;-54
2022/03/05 01:21:52;;;;;;;7.33;5.23;;;;;;;;;;4977810;28;20106;-55
2022/03/05 01:24:18;;;;;;;8.07;4.77;;;;;;;;;;4970506;28;20415;-55
2022/03/05 01:26:43;;;;;;;7.05;4.53;;;;;;;;;;4982827;28;20544;-55
2022/03/05 01:29:08;;;;;;;8.10;5.20;;;;;;;;;;4983399;28;20023;-55
2022/03/05 01:31:34;;;;;;;7.57;4.30;;;;;;;;;;4983171;28;20036;-54
2022/03/05 01:33:59;;;;;;;8.30;4.97;;;;;;;;;;4981844;28;20815;-55
2022/03/05 01:36:24;;;;;;;7.05;4.40;;;;;;;;;;4982998;28;20753;-54
2022/03/05 01:38:49;;;;;;;7.13;4.37;;;;;;;;;;4982808;28;20105;-55
2022/03/05 01:41:14;;;;;;;7.30;5.10;;;;;;;;;;4981445;28;20325;-55
2022/03/05 01:43:40;;;;;;;5.90;4.13;;;;;;;;;;4982483;28;20080;-55
2022/03/05 01:46:05;;;;;;;7.00;4.95;;;;;;;;;;4982853;28;20331;-55
2022/03/05 01:48:30;;;;;;;6.77;4.50;;;;;;;;;;4982659;28;20030;-55
2022/03/05 01:50:55;;;;;;;7.33;4.60;;;;;;;;;;4982693;28;20028;-55
2022/03/05 01:53:20;;;;;;;7.40;4.70;;;;;;;;;;4982692;28;20040;-55
2022/03/05 01:55:46;;;;;;;7.10;4.63;;;;;;;;;;4982068;28;20384;-55
2022/03/05 01:58:11;;;;;;;8.23;5.22;;;;;;;;;;4981099;28;20023;-55
2022/03/05 02:00:36;;;;;;;7.07;4.80;;;;;;;;;;4982285;28;20109;-55
2022/03/05 02:03:02;;;;;;;6.55;4.50;;;;;;;;;;4981394;28;20060;-54
2022/03/05 02:05:28;;;;;;;6.13;4.13;;;;;;;;;;4982372;28;20057;-54
2022/03/05 02:07:53;;;;;;;6.47;4.50;;;;;;;;;;4982387;28;20022;-55
2022/03/05 02:10:18;;;;;;;7.57;5.07;;;;;;;;;;4982092;28;20413;-56
2022/03/05 02:12:44;;;;;;;7.07;5.00;;;;;;;;;;4982028;28;20269;-55
2022/03/05 02:15:09;;;;;;;7.32;4.35;;;;;;;;;;4981941;28;20480;-55
2022/03/05 02:17:35;;;;;;;6.65;4.70;;;;;;;;;;4981488;28;20030;-55
2022/03/05 02:20:00;;;;;;;6.55;4.57;;;;;;;;;;4982567;28;20421;-54
2022/03/05 02:22:25;;;;;;;7.43;4.53;;;;;;;;;;4982306;28;20480;-55
2022/03/05 02:24:51;;;;;;;6.43;4.80;;;;;;;;;;4981526;28;20966;-55
2022/03/05 02:27:16;;;;;;;6.55;4.57;;;;;;;;;;4981735;28;20516;-55
2022/03/05 02:29:41;;;;;;;7.97;4.90;;;;;;;;;;4981739;28;20022;-55
2022/03/05 02:32:06;;;;;;;6.50;4.73;;;;;;;;;;4982147;28;20360;-55
2022/03/05 02:34:32;;;;;;;8.27;5.63;;;;;;;;;;4980329;28;20279;-55
2022/03/05 02:36:57;;;;;;;7.40;4.63;;;;;;;;;;4981763;28;20030;-55
2022/03/05 02:39:25;;;;;;;6.78;4.78;;;;;;;;;;4981324;28;20273;-55
2022/03/05 02:41:53;;;;;;;6.57;4.60;;;;;;;;;;4981165;28;20080;-55
2022/03/05 02:44:19;;;;;;;7.30;4.38;;;;;;;;;;4986013;28;20022;-54
2022/03/05 02:46:44;;;;;;;6.68;4.18;;;;;;;;;;4981601;28;20061;-55
2022/03/05 02:49:09;;;;;;;6.90;4.67;;;;;;;;;;4981555;28;20033;-56
2022/03/05 02:51:34;;;;;;;7.33;5.17;;;;;;;;;;4981420;28;20023;-55
2022/03/05 02:54:00;;;;;;;8.23;4.65;;;;;;;;;;4981266;28;20300;-54
2022/03/05 02:56:25;;;;;;;6.72;4.28;;;;;;;;;;4981415;28;20080;-54
2022/03/05 02:58:50;;;;;;;6.77;4.77;;;;;;;;;;4981070;28;20488;-56
2022/03/05 03:01:15;;;;;;;6.43;4.50;;;;;;;;;;4981311;28;20680;-55
2022/03/05 03:03:41;;;;;;;6.90;4.60;;;;;;;;;;4981213;28;20734;-54
2022/03/05 03:06:06;;;;;;;8.48;4.68;;;;;;;;;;4981323;28;20447;-55
2022/03/05 03:08:31;;;;;;;5.70;4.00;;;;;;;;;;4981057;28;20114;-54
2022/03/05 03:10:57;;;;;;;6.75;5.00;;;;;;;;;;4993433;28;20794;-55
2022/03/05 03:13:22;;;;;;;5.93;4.22;;;;;;;;;;5001043;28;20397;-55
2022/03/05 03:15:48;;;;;;;7.53;4.73;;;;;;;;;;5000305;28;20526;-55
2022/03/05 03:18:15;;;;;;;6.77;4.37;;;;;;;;;;4995293;28;20448;-55
2022/03/05 03:20:40;;;;;;;6.50;4.25;;;;;;;;;;4979976;28;20301;-55
2022/03/05 03:23:05;;;;;;;7.28;4.28;;;;;;;;;;4981013;28;20081;-55
2022/03/05 03:25:31;;;;;;;6.33;4.30;;;;;;;;;;4980752;28;20037;-55
2022/03/05 03:27:56;;;;;;;6.60;4.50;;;;;;;;;;4981196;28;20279;-55
2022/03/05 03:30:21;;;;;;;6.30;4.10;;;;;;;;;;4981213;28;20281;-55
2022/03/05 03:32:47;;;;;;;5.82;3.90;;;;;;;;;;4981140;28;20273;-53
2022/03/05 03:35:12;;;;;;;5.90;4.53;;;;;;;;;;4981103;28;20134;-55
2022/03/05 03:37:38;;;;;;;6.15;4.63;;;;;;;;;;4981109;28;20460;-55
2022/03/05 03:40:04;;;;;;;7.50;4.60;;;;;;;;;;4980868;28;20476;-55
2022/03/05 03:42:30;;;;;;;7.60;4.78;;;;;;;;;;4981007;28;20484;-55
2022/03/05 03:44:55;;;;;;;6.30;4.57;;;;;;;;;;4982785;28;20022;-54
2022/03/05 03:47:20;;;;;;;6.37;4.57;;;;;;;;;;4985159;28;20269;-55
2022/03/05 03:49:46;;;;;;;6.32;4.38;;;;;;;;;;4988458;28;21029;-55
2022/03/05 03:52:13;;;;;;;6.50;4.03;;;;;;;;;;4993093;28;20042;-55
2022/03/05 03:54:38;;;;;;;6.32;4.60;;;;;;;;;;4992528;28;20030;-56
2022/03/05 03:57:03;;;;;;;7.28;4.82;;;;;;;;;;4988554;28;20100;-55
2022/03/05 03:59:28;;;;;;;6.40;4.50;;;;;;;;;;4985157;28;20030;-54
2022/03/05 04:01:54;;;;;;;6.13;4.13;;;;;;;;;;4984928;28;20277;-55
2022/03/05 04:04:19;;;;;;;6.57;4.53;;;;;;;;;;4985219;28;20269;-55
2022/03/05 04:09:28;;;;;;;7.20;4.47;;;;;;;;;;4984592;28;20280;-55
2022/03/05 04:11:53;;;;;;;7.00;5.00;;;;;;;;;;4984807;28;20026;-54
2022/03/05 04:14:18;;;;;;;6.23;4.13;;;;;;;;;;4985014;28;20849;-55
2022/03/05 04:16:43;;;;;;;6.87;4.73;;;;;;;;;;4984967;28;20050;-55
2022/03/05 04:19:09;;;;;;;6.90;4.57;;;;;;;;;;4988478;28;20018;-55
2022/03/05 04:21:34;;;;;;;6.77;4.17;;;;;;;;;;4985164;28;20275;-55
2022/03/05 04:23:59;;;;;;;8.07;4.80;;;;;;;;;;4990236;28;20281;-53
2022/03/05 04:26:24;;;;;;;7.13;4.83;;;;;;;;;;4984858;28;20042;-54
2022/03/05 04:28:49;;;;;;;7.50;4.73;;;;;;;;;;4985234;28;20022;-53
2022/03/05 04:31:15;;;;;;;7.15;4.30;;;;;;;;;;4985177;28;20274;-55
2022/03/05 04:33:40;;;;;;;7.13;4.50;;;;;;;;;;4985070;28;20076;-55
2022/03/05 04:36:05;;;;;;;6.00;4.10;;;;;;;;;;4984919;28;20305;-55
2022/03/05 04:38:31;;;;;;;6.38;4.30;;;;;;;;;;4983469;28;20416;-55
2022/03/05 04:40:56;;;;;;;6.50;4.57;;;;;;;;;;4984481;28;20034;-55
2022/03/05 04:43:21;;;;;;;6.77;4.40;;;;;;;;;;4983990;28;20030;-55
2022/03/05 04:45:47;;;;;;;6.25;4.22;;;;;;;;;;4983770;28;20110;-54
2022/03/05 04:48:12;;;;;;;6.40;4.22;;;;;;;;;;4984409;28;20023;-55
2022/03/05 04:50:37;;;;;;;6.63;4.57;;;;;;;;;;4984744;28;20064;-53
2022/03/05 04:53:03;;;;;;;6.50;4.38;;;;;;;;;;4984413;28;20168;-53
2022/03/05 04:55:28;;;;;;;6.90;4.35;;;;;;;;;;4983241;28;20030;-55
2022/03/05 04:57:53;;;;;;;7.20;4.30;;;;;;;;;;4983177;28;20037;-53
2022/03/05 05:00:19;;;;;;;7.30;4.40;;;;;;;;;;4984351;28;20014;-53
2022/03/05 05:02:44;;;;;;;6.47;4.13;;;;;;;;;;4984085;28;20288;-55
2022/03/05 05:05:10;;;;;;;5.65;4.40;;;;;;;;;;4983944;28;20037;-53
2022/03/05 05:07:35;;;;;;;6.03;4.03;;;;;;;;;;4983693;28;20041;-53
2022/03/05 05:10:00;;;;;;;7.40;4.50;;;;;;;;;;4983829;28;20027;-53
2022/03/05 05:12:26;;;;;;;6.77;4.90;;;;;;;;;;4983215;28;20298;-53
2022/03/05 05:14:51;;;;;;;6.47;4.67;;;;;;;;;;4983378;28;20034;-52
2022/03/05 05:17:16;;;;;;;7.03;4.63;;;;;;;;;;4982857;28;20368;-55
2022/03/05 05:19:41;;;;;;;7.03;4.70;;;;;;;;;;4982942;28;20285;-54
2022/03/05 05:22:07;;;;;;;7.13;4.97;;;;;;;;;;4982537;28;20849;-54
2022/03/05 05:24:32;;;;;;;7.45;4.97;;;;;;;;;;4982657;28;20664;-56
2022/03/05 05:26:58;;;;;;;7.10;4.70;;;;;;;;;;4982802;28;20018;-55
2022/03/05 05:29:23;;;;;;;7.03;4.43;;;;;;;;;;4983041;28;20034;-54
2022/03/05 05:31:48;;;;;;;7.30;4.80;;;;;;;;;;4982786;28;20835;-53
2022/03/05 05:34:14;;;;;;;7.38;4.72;;;;;;;;;;4982878;28;20081;-54
2022/03/05 05:36:39;;;;;;;6.40;4.22;;;;;;;;;;4982717;28;20038;-55
2022/03/05 05:39:05;;;;;;;6.63;4.20;;;;;;;;;;4983514;28;20101;-53
2022/03/05 05:41:31;;;;;;;6.60;4.35;;;;;;;;;;4982933;28;20274;-53
2022/03/05 05:43:56;;;;;;;6.97;4.50;;;;;;;;;;4982810;28;20026;-53
2022/03/05 05:46:21;;;;;;;6.90;4.67;;;;;;;;;;4982291;28;20117;-53
2022/03/05 05:48:46;;;;;;;5.43;4.07;;;;;;;;;;4982782;28;20118;-53
2022/03/05 05:51:11;;;;;;;7.43;4.77;;;;;;;;;;4983154;28;20109;-53
2022/03/05 05:53:37;;;;;;;6.57;4.57;;;;;;;;;;4983076;28;20309;-55
2022/03/05 05:56:02;;;;;;;6.73;4.27;;;;;;;;;;4982672;28;20110;-55
2022/03/05 05:58:27;;;;;;;6.40;4.30;;;;;;;;;;4982781;28;20320;-55
2022/03/05 06:00:52;;;;;;;7.13;4.70;;;;;;;;;;4982513;28;20174;-55
2022/03/05 06:03:18;;;;;;;6.03;4.30;;;;;;;;;;4981963;28;20117;-55
2022/03/05 06:05:43;;;;;;;7.27;4.80;;;;;;;;;;4981830;28;20128;-55
2022/03/05 06:08:08;;;;;;;6.30;4.57;;;;;;;;;;4980869;28;20113;-55
2022/03/05 06:10:34;;;;;;;7.37;4.40;;;;;;;;;;4982878;28;20065;-56
2022/03/05 06:12:59;;;;;;;6.07;4.32;;;;;;;;;;4981692;28;20058;-56
2022/03/05 06:15:24;;;;;;;6.43;4.50;;;;;;;;;;4983269;28;20088;-56
2022/03/05 06:17:50;;;;;;;7.23;4.40;;;;;;;;;;4982279;28;20049;-55
2022/03/05 06:20:15;;;;;;;7.07;4.68;;;;;;;;;;4982344;28;20060;-56
2022/03/05 06:22:40;;;;;;;7.37;4.67;;;;;;;;;;4982412;28;20080;-59
2022/03/05 06:25:05;;;;;;;7.57;4.60;;;;;;;;;;4980665;28;20638;-53
2022/03/05 06:27:31;;;;;;;7.93;4.40;;;;;;;;;;4980143;28;20010;-56
2022/03/05 06:29:56;;;;;;;7.20;4.57;;;;;;;;;;4981559;28;20494;-55
2022/03/05 06:32:21;;;;;;;7.10;4.57;;;;;;;;;;4978836;28;20508;-54
2022/03/05 06:34:46;;;;;;;7.72;4.85;;;;;;;;;;4980497;28;20593;-56
2022/03/05 06:37:12;;;;;;;6.87;4.50;;;;;;;;;;4981379;28;20132;-55
2022/03/05 06:39:37;;;;;;;7.10;4.77;;;;;;;;;;4980810;28;20018;-56
2022/03/05 06:42:02;;;;;;;6.85;4.50;;;;;;;;;;4981226;28;20722;-55
2022/03/05 06:44:27;;;;;;;9.73;4.70;;;;;;;;;;4980727;28;20097;-54
2022/03/05 06:46:53;;;;;;;6.93;4.70;;;;;;;;;;4980824;28;20033;-54
2022/03/05 06:49:19;;;;;;;6.30;4.20;;;;;;;;;;4972872;28;20265;-53
2022/03/05 06:51:44;;;;;;;7.38;5.05;;;;;;;;;;4969448;28;20089;-55
2022/03/05 06:54:09;;;;;;;6.60;4.67;;;;;;;;;;4980217;28;20049;-54
2022/03/05 06:56:34;;;;;;;7.35;4.40;;;;;;;;;;4979125;28;20069;-55
2022/03/05 06:58:59;;;;;;;6.87;4.87;;;;;;;;;;4974624;28;20504;-54
2022/03/05 07:01:25;;;;;;;6.73;4.60;;;;;;;;;;4980668;28;20279;-55
2022/03/05 07:03:50;;;;;;;5.57;4.40;;;;;;;;;;4978999;28;20018;-55
2022/03/05 07:06:15;;;;;;;6.53;4.40;;;;;;;;;;4980167;28;20321;-55
2022/03/05 07:08:40;;;;;;;6.83;4.57;;;;;;;;;;4980273;28;20025;-54
2022/03/05 07:11:06;;;;;;;7.00;4.77;;;;;;;;;;4980535;28;20053;-56
2022/03/05 07:13:31;;;;;;;6.38;4.68;;;;;;;;;;4980923;28;20026;-56
2022/03/05 07:15:56;;;;;;;6.13;4.63;;;;;;;;;;4981620;28;20100;-54
2022/03/05 07:18:22;;;;;;;6.47;4.63;;;;;;;;;;4980718;28;20428;-55
2022/03/05 07:20:47;;;;;;;7.07;4.73;;;;;;;;;;4980212;28;20061;-55
2022/03/05 07:23:12;;;;;;;6.27;4.63;;;;;;;;;;4974645;28;20069;-58
2022/03/05 07:25:39;;;;;;;7.03;5.00;;;;;;;;;;4980604;28;20146;-55
2022/03/05 07:28:05;;;;;;;7.03;4.97;;;;;;;;;;4980698;28;20673;-57
2022/03/05 07:30:30;;;;;;;6.15;4.45;;;;;;;;;;4980833;28;20133;-55
2022/03/05 07:32:55;;;;;;;7.03;4.70;;;;;;;;;;4980522;28;20684;-55
2022/03/05 07:35:20;;;;;;;6.53;4.40;;;;;;;;;;4980281;28;20436;-54
2022/03/05 07:37:46;;;;;;;7.00;4.85;;;;;;;;;;4980276;28;20487;-55
2022/03/05 07:40:11;;;;;;;6.83;4.70;;;;;;;;;;4980698;28;20011;-55
2022/03/05 07:42:36;;;;;;;6.95;4.90;;;;;;;;;;4981343;28;20018;-54
2022/03/05 07:45:02;;;;;;;6.50;5.13;;;;;;;;;;4979985;28;20030;-55
2022/03/05 07:47:27;;;;;;;7.45;5.03;;;;;;;;;;4982655;28;20053;-56
2022/03/05 07:49:52;;;;;;;7.20;5.10;;;;;;;;;;4982817;28;20567;-55
2022/03/05 07:52:18;;;;;;;6.88;4.95;;;;;;;;;;4984827;28;20473;-55
2022/03/05 07:54:43;;;;;;;7.22;5.07;;;;;;;;;;4981080;28;20058;-55
2022/03/05 07:57:08;;;;;;;6.83;4.63;;;;;;;;;;4980378;28;20038;-54
2022/03/05 07:59:33;;;;;;;6.53;4.60;;;;;;;;;;4981046;28;20034;-55
2022/03/05 08:01:59;;;;;;;6.87;4.83;;;;;;;;;;4980251;28;20026;-55
2022/03/05 08:04:24;;;;;;;6.60;4.53;;;;;;;;;;4963630;28;20296;-55
2022/03/05 08:06:49;;;;;;;6.50;4.67;;;;;;;;;;4966050;28;20723;-55
2022/03/05 08:09:14;;;;;;;7.37;4.70;;;;;;;;;;4977176;28;20437;-52
2022/03/05 08:11:39;;;;;;;6.37;4.70;;;;;;;;;;4980298;28;20532;-59
2022/03/05 08:14:05;;;;;;;6.80;5.00;;;;;;;;;;4980082;28;20025;-58
2022/03/05 08:16:31;;;;;;;7.60;4.97;;;;;;;;;;4979668;28;20301;-59
2022/03/05 08:18:57;;;;;;;7.50;5.00;;;;;;;;;;4980902;28;20810;-57
2022/03/05 08:21:22;;;;;;;6.40;4.88;;;;;;;;;;4981274;28;20030;-58
2022/03/05 08:23:47;;;;;;;6.90;4.90;;;;;;;;;;4980011;28;20077;-57
2022/03/05 08:26:13;;;;;;;5.60;4.65;;;;;;;;;;4979688;28;20030;-57
2022/03/05 08:28:38;;;;;;;6.35;4.68;;;;;;;;;;4979344;28;20081;-57
2022/03/05 08:31:04;;;;;;;7.13;5.40;;;;;;;;;;4981416;28;20022;-57
2022/03/05 08:33:30;;;;;;;8.10;5.50;;;;;;;;;;4983327;28;20014;-57
2022/03/05 08:35:55;;;;;;;6.50;4.97;;;;;;;;;;4983510;28;20038;-57
2022/03/05 08:38:20;;;;;;;6.87;4.87;;;;;;;;;;4984016;28;20022;-59
2022/03/05 08:40:45;;;;;;;7.20;5.47;;;;;;;;;;4983906;28;20750;-56
2022/03/05 08:43:10;;;;;;;6.67;5.13;;;;;;;;;;4983476;28;20424;-59
2022/03/05 08:45:36;;;;;;;7.00;4.73;;;;;;;;;;4982894;28;20485;-57
2022/03/05 08:48:01;;;;;;;7.00;5.10;;;;;;;;;;4983199;28;20752;-60
2022/03/05 08:50:26;;;;;;;7.65;4.93;;;;;;;;;;4983313;28;20480;-57
2022/03/05 08:52:51;;;;;;;8.40;6.07;;;;;;;;;;4984503;28;20038;-57
2022/03/05 08:55:17;;;;;;;8.73;5.37;;;;;;;;;;4983552;28;20810;-55
2022/03/05 08:57:42;;;;;;;6.30;5.03;;;;;;;;;;5000118;28;20375;-57
2022/03/05 09:00:08;;;;;;;7.68;5.13;;;;;;;;;;4983575;28;20018;-62
2022/03/05 09:02:33;;;;;;;7.05;5.03;;;;;;;;;;4983713;28;20050;-61
2022/03/05 09:04:59;;;;;;;6.80;5.07;;;;;;;;;;4988933;28;20451;-56
2022/03/05 09:07:24;;;;;;;8.63;5.47;;;;;;;;;;4984218;28;20335;-56
2022/03/05 09:09:49;;;;;;;25.20;6.70;;;;;;;;;;4984578;28;20022;-55
2022/03/05 09:12:14;;;;;;;15.20;9.40;;;;;;;;;;4983686;28;20270;-55
2022/03/05 09:14:40;;;;;;;9.13;5.30;;;;;;;;;;4979178;28;20746;-58
2022/03/05 09:17:05;;;;;;;9.03;5.27;;;;;;;;;;4975546;28;20536;-56
2022/03/05 09:19:30;;;;;;;6.43;5.00;;;;;;;;;;4976419;28;20269;-58
2022/03/05 09:21:55;;;;;;;7.82;5.18;;;;;;;;;;4976416;28;20097;-59
2022/03/05 09:24:20;;;;;;;8.50;5.83;;;;;;;;;;4975905;28;20026;-58
2022/03/05 09:26:46;;;;;;;6.30;4.83;;;;;;;;;;4974664;28;20709;-57
2022/03/05 09:29:11;;;;;;;7.28;5.25;;;;;;;;;;4976444;28;20106;-58
2022/03/05 09:31:36;;;;;;;6.65;5.15;;;;;;;;;;4975767;28;20097;-56
2022/03/05 09:34:02;;;;;;;7.60;5.38;;;;;;;;;;4976170;28;20504;-57
2022/03/05 09:36:27;;;;;;;8.63;5.17;;;;;;;;;;4969921;28;20039;-57
2022/03/05 09:38:52;;;;;;;7.63;5.25;;;;;;;;;;4965012;28;20034;-57
2022/03/05 09:41:17;;;;;;;7.73;5.30;;;;;;;;;;4964381;28;20489;-59
2022/03/05 09:43:43;;;;;;;7.50;5.27;;;;;;;;;;4963626;28;20031;-60
2022/03/05 09:46:08;;;;;;;9.35;5.40;;;;;;;;;;4979093;28;20015;-55
2022/03/05 09:48:34;;;;;;;9.63;5.37;;;;;;;;;;4981279;28;20058;-57
2022/03/05 09:50:59;;;;;;;6.37;4.93;;;;;;;;;;4980440;28;20285;-57
2022/03/05 09:53:30;;;;;;;7.40;5.30;;;;;;;;;;4981647;28;20034;-58
2022/03/05 09:55:55;;;;;;;8.23;5.22;;;;;;;;;;4980813;28;20304;-57
2022/03/05 09:58:21;;;;;;;8.30;5.37;;;;;;;;;;4981121;28;20364;-57
2022/03/05 10:00:46;;;;;;;8.40;5.57;;;;;;;;;;4981400;28;20348;-56
2022/03/05 10:03:11;;;;;;;8.10;5.50;;;;;;;;;;4977883;28;20042;-58
2022/03/05 10:05:37;;;;;;;7.20;5.65;;;;;;;;;;4963934;28;20058;-58
2022/03/05 10:08:10;;;;;;;7.95;5.60;;;;;;;;;;4966771;28;20022;-62
2022/03/05 10:10:45;;;;;;;7.05;4.93;;;;;;;;;;4964091;28;20034;-57
2022/03/05 10:13:21;;;;;;;7.95;5.38;;;;;;;;;;4963908;28;20553;-57
2022/03/05 10:15:46;;;;;;;7.40;5.68;;;;;;;;;;4963139;28;20141;-57
2022/03/05 10:18:11;;;;;;;7.75;5.15;;;;;;;;;;4966860;28;20636;-59
2022/03/05 10:20:42;;;;;;;7.90;5.30;;;;;;;;;;4982596;28;20030;-57
2022/03/05 10:23:07;;;;;;;8.10;5.70;;;;;;;;;;4982715;28;20030;-59
2022/03/05 10:25:43;;;;;;;7.70;5.65;;;;;;;;;;4982700;28;20528;-59
2022/03/05 10:28:12;;;;;;;8.65;5.68;;;;;;;;;;4966648;28;20064;-58
2022/03/05 10:30:44;;;;;;;8.50;5.50;;;;;;;;;;4981189;28;20476;-59
2022/03/05 10:33:22;;;;;;;9.20;5.55;;;;;;;;;;4983398;28;20045;-58
2022/03/05 10:35:47;;;;;;;8.48;6.00;;;;;;;;;;4981792;28;20042;-60
2022/03/05 10:38:13;;;;;;;8.85;5.57;;;;;;;;;;4982696;28;20088;-59
2022/03/05 10:40:38;;;;;;;8.93;5.43;;;;;;;;;;4982283;28;20018;-57
2022/03/05 10:43:04;;;;;;;11.60;5.60;;;;;;;;;;4982126;28;20278;-57
2022/03/05 10:45:29;;;;;;;10.93;5.93;;;;;;;;;;4981980;28;20057;-55
2022/03/05 10:47:55;;;;;;;8.27;5.93;;;;;;;;;;4979186;28;20054;-59
2022/03/05 10:50:20;;;;;;;10.60;6.10;;;;;;;;;;4981546;28;20277;-59
2022/03/05 10:52:46;;;;;;;10.10;5.80;;;;;;;;;;4981901;28;20037;-59
2022/03/05 10:55:18;;;;;;;8.65;5.90;;;;;;;;;;4982401;28;20034;-58
2022/03/05 10:58:20;;;;;;;11.95;5.88;;;;;;;;;;4981976;28;20073;-59
2022/03/05 11:00:46;;;;;;;10.00;5.82;;;;;;;;;;4972497;28;20027;-59
2022/03/05 11:03:11;;;;;;;12.40;6.07;;;;;;;;;;4981078;28;20037;-59
2022/03/05 11:05:36;;;;;;;9.80;6.10;;;;;;;;;;4983152;28;20027;-59
2022/03/05 11:08:02;;;;;;;11.82;5.55;;;;;;;;;;4981773;28;20581;-59
2022/03/05 11:10:29;;;;;;;10.75;5.65;;;;;;;;;;4982077;28;20131;-59
2022/03/05 11:12:59;;;;;;;8.68;5.55;;;;;;;;;;4981056;28;20053;-59
2022/03/05 11:15:24;;;;;;;9.50;5.70;;;;;;;;;;4979388;28;20120;-59
2022/03/05 11:17:50;;;;;;;11.40;6.03;;;;;;;;;;4981081;28;20520;-60
2022/03/05 11:20:15;;;;;;;9.38;5.35;;;;;;;;;;4980621;28;20016;-59
2022/03/05 11:22:41;;;;;;;10.20;5.63;;;;;;;;;;4981537;28;20034;-59
2022/03/05 11:25:09;;;;;;;11.27;5.97;;;;;;;;;;4981437;28;20299;-58
2022/03/05 11:27:35;;;;;;;7.15;4.90;;;;;;;;;;4980500;28;20069;-59
2022/03/05 11:30:03;;;;;;;8.35;5.63;;;;;;;;;;4981822;28;20572;-59
2022/03/05 11:32:29;;;;;;;8.63;5.07;;;;;;;;;;4981395;28;20217;-59
2022/03/05 11:34:54;;;;;;;8.90;5.20;;;;;;;;;;4981346;28;20331;-58
2022/03/05 11:37:23;;;;;;;8.87;5.93;;;;;;;;;;4994367;28;20029;-59
2022/03/05 11:39:48;;;;;;;8.68;5.88;;;;;;;;;;4984872;28;20850;-60
2022/03/05 11:42:25;;;;;;;8.43;5.60;;;;;;;;;;4981339;28;20023;-59
2022/03/05 11:44:51;;;;;;;9.02;6.13;;;;;;;;;;4981592;28;20281;-60
2022/03/05 11:47:19;;;;;;;8.83;5.00;;;;;;;;;;4980509;28;20030;-59
2022/03/05 11:49:58;;;;;;;8.43;5.63;;;;;;;;;;4981228;28;20026;-59
2022/03/05 11:52:23;;;;;;;8.95;5.50;;;;;;;;;;4981390;28;20128;-59
2022/03/05 11:55:14;;;;;;;10.38;5.50;;;;;;;;;;4981309;28;20500;-59
2022/03/05 11:57:43;;;;;;;8.63;5.20;;;;;;;;;;4981621;28;20053;-60
2022/03/05 12:00:08;;;;;;;9.00;5.20;;;;;;;;;;4981140;28;20028;-59
2022/03/05 12:02:39;;;;;;;9.50;5.70;;;;;;;;;;4981463;28;20034;-59
2022/03/05 12:05:05;;;;;;;7.90;5.15;;;;;;;;;;4981743;28;20026;-59
2022/03/05 12:07:36;;;;;;;9.05;5.22;;;;;;;;;;4985631;28;20739;-59
2022/03/05 12:10:10;;;;;;;29.63;6.88;;;;;;;;;;4980730;28;20030;-60
2022/03/05 12:12:51;;;;;;;18.70;6.05;;;;;;;;;;4969895;28;20025;-58
2022/03/05 12:15:16;;;;;;;15.57;6.68;;;;;;;;;;4982730;28;20061;-59
2022/03/05 12:17:42;;;;;;;17.40;6.57;;;;;;;;;;4967970;28;20027;-59
2022/03/05 12:20:08;;;;;;;13.98;6.30;;;;;;;;;;4972665;28;20862;-59
2022/03/05 12:22:33;;;;;;;11.85;6.35;;;;;;;;;;4970011;28;20418;-58
2022/03/05 12:24:59;;;;;;;18.73;6.97;;;;;;;;;;4964159;28;20022;-58
2022/03/05 12:27:24;;;;;;;12.77;5.53;;;;;;;;;;4964388;28;20263;-57
2022/03/05 12:29:50;;;;;;;11.88;6.38;;;;;;;;;;4963490;28;20041;-58
2022/03/05 12:32:16;;;;;;;12.25;5.90;;;;;;;;;;4965105;28;20073;-57
2022/03/05 12:34:41;;;;;;;10.73;5.63;;;;;;;;;;4966204;28;20121;-58
2022/03/05 12:37:07;;;;;;;11.03;5.30;;;;;;;;;;4975375;28;20702;-57
2022/03/05 12:39:33;;;;;;;11.25;5.32;;;;;;;;;;4987507;28;20278;-62
2022/03/05 12:41:58;;;;;;;11.77;5.63;;;;;;;;;;4989596;28;20033;-63
2022/03/05 12:44:23;;;;;;;11.70;5.93;;;;;;;;;;5002532;28;20269;-60
2022/03/05 12:46:48;;;;;;;9.23;5.30;;;;;;;;;;4985287;28;20157;-60
2022/03/05 12:49:14;;;;;;;8.73;5.67;;;;;;;;;;4981814;28;20018;-58
2022/03/05 12:51:39;;;;;;;8.10;5.35;;;;;;;;;;4982350;28;20026;-60
2022/03/05 12:54:04;;;;;;;10.03;5.80;;;;;;;;;;4983459;28;20081;-58
2022/03/05 12:56:30;;;;;;;11.93;6.40;;;;;;;;;;4982673;28;20030;-57
2022/03/05 12:58:58;;;;;;;10.00;5.90;;;;;;;;;;4982727;28;20023;-56
2022/03/05 13:01:23;;;;;;;12.55;6.40;;;;;;;;;;4983796;28;20345;-57
2022/03/05 13:03:49;;;;;;;9.10;6.68;;;;;;;;;;4982750;28;20034;-56
2022/03/05 13:06:17;;;;;;;12.02;6.43;;;;;;;;;;4983488;28;20554;-57
2022/03/05 13:08:42;;;;;;;14.20;6.60;;;;;;;;;;4980129;28;20062;-57
2022/03/05 13:11:09;;;;;;;10.83;6.40;;;;;;;;;;4981704;28;20108;-56
2022/03/05 13:13:47;;;;;;;12.15;7.35;;;;;;;;;;4982114;28;20030;-56
2022/03/05 13:16:41;;;;;;;14.00;8.15;;;;;;;;;;4976839;28;20049;-56
2022/03/05 13:19:08;;;;;;;13.05;8.25;;;;;;;;;;4978851;28;20424;-55
2022/03/05 13:21:37;;;;;;;11.57;6.97;;;;;;;;;;4983104;28;20026;-58
2022/03/05 13:24:03;;;;;;;12.53;7.87;;;;;;;;;;4982084;28;20489;-57
2022/03/05 13:26:32;;;;;;;10.75;7.03;;;;;;;;;;4982216;28;20164;-59
2022/03/05 13:28:58;;;;;;;11.85;7.85;;;;;;;;;;4981317;28;20026;-56
2022/03/05 13:31:27;;;;;;;10.85;7.65;;;;;;;;;;4982190;28;20512;-56
2022/03/05 13:33:52;;;;;;;18.47;7.90;;;;;;;;;;4982378;28;20456;-56
2022/03/05 13:36:37;;;;;;;10.77;7.03;;;;;;;;;;4981985;28;20332;-58
2022/03/05 13:39:14;;;;;;;11.50;7.53;;;;;;;;;;4982405;28;20327;-58
2022/03/05 13:41:41;;;;;;;12.02;7.75;;;;;;;;;;4982341;28;20477;-57
2022/03/05 13:44:14;;;;;;;11.48;7.68;;;;;;;;;;4981793;28;20081;-57
2022/03/05 13:46:39;;;;;;;10.50;7.60;;;;;;;;;;4982660;28;20489;-57
2022/03/05 13:49:05;;;;;;;11.10;7.97;;;;;;;;;;4982432;28;20034;-58
2022/03/05 13:51:30;;;;;;;11.73;7.30;;;;;;;;;;4983007;28;20027;-56
2022/03/05 13:53:57;;;;;;;10.68;7.30;;;;;;;;;;4982467;28;20038;-59
2022/03/05 13:56:22;;;;;;;10.65;7.55;;;;;;;;;;4982477;28;20100;-59
2022/03/05 13:58:51;;;;;;;11.15;7.75;;;;;;;;;;4982714;28;20480;-59
2022/03/05 14:01:29;;;;;;;9.93;7.82;;;;;;;;;;4982376;28;20084;-56
2022/03/05 14:04:23;;;;;;;11.25;7.10;;;;;;;;;;4982177;28;20022;-58
2022/03/05 14:06:52;;;;;;;10.70;7.60;;;;;;;;;;4977416;28;20081;-58
2022/03/05 14:09:18;;;;;;;11.43;7.57;;;;;;;;;;4982231;28;20026;-58
2022/03/05 14:11:43;;;;;;;10.10;7.00;;;;;;;;;;4981748;28;20015;-57
2022/03/05 14:14:08;;;;;;;11.67;7.77;;;;;;;;;;4980107;28;20033;-58
2022/03/05 14:16:37;;;;;;;9.37;6.80;;;;;;;;;;4981979;28;20038;-56
2022/03/05 14:19:02;;;;;;;10.20;7.35;;;;;;;;;;4982106;28;20196;-59
2022/03/05 14:21:27;;;;;;;10.75;7.60;;;;;;;;;;4988824;28;20097;-56
2022/03/05 14:23:52;;;;;;;10.97;7.10;;;;;;;;;;4984899;28;20473;-57
2022/03/05 14:26:18;;;;;;;9.60;6.77;;;;;;;;;;4984329;28;20086;-58
2022/03/05 14:28:43;;;;;;;9.27;7.28;;;;;;;;;;4979665;28;20540;-56
2022/03/05 14:31:11;;;;;;;10.00;6.90;;;;;;;;;;4980762;28;20040;-57
2022/03/05 14:33:37;;;;;;;8.57;6.40;;;;;;;;;;4982068;28;20400;-58
2022/03/05 14:36:02;;;;;;;10.98;7.18;;;;;;;;;;4981458;28;20038;-57
2022/03/05 14:38:27;;;;;;;8.80;6.28;;;;;;;;;;4981837;28;20045;-58